sensor_id;sensor_type;location;lat;lon;timestamp;P1;durP1;ratioP1;P2;durP2;ratioP2
42944;SDS011;28584;42.636;23.294;2023-04-25T00:02:07;1736.43;;;802.88;;
42944;SDS011;28584;42.636;23.294;2023-04-25T00:04:33;1672.78;;;787.22;;
42944;SDS011;28584;42.636;23.294;2023-04-25T00:06:59;1690.82;;;792.05;;
42944;SDS011;28584;42.636;23.294;2023-04-25T00:09:27;1645.72;;;777.92;;
42944;SDS011;28584;42.636;23.294;2023-04-25T00:11:53;1999.90;;;999.90;;
42944;SDS011;28584;42.636;23.294;2023-04-25T00:14:18;1628.18;;;777.95;;
42944;SDS011;28584;42.636;23.294;2023-04-25T00:16:44;1581.88;;;762.30;;
42944;SDS011;28584;42.636;23.294;2023-04-25T00:19:09;1999.90;;;999.90;;
42944;SDS011;28584;42.636;23.294;2023-04-25T00:21:35;1999.90;;;999.90;;
42944;SDS011;28584;42.636;23.294;2023-04-25T00:24:00;1999.90;;;999.90;;
42944;SDS011;28584;42.636;23.294;2023-04-25T00:26:26;1999.90;;;999.90;;
42944;SDS011;28584;42.636;23.294;2023-04-25T00:28:52;1999.90;;;999.90;;
42944;SDS011;28584;42.636;23.294;2023-04-25T00:31:17;1999.90;;;999.90;;
42944;SDS011;28584;42.636;23.294;2023-04-25T00:33:43;1999.90;;;999.90;;
42944;SDS011;28584;42.636;23.294;2023-04-25T00:36:08;1999.90;;;999.90;;
42944;SDS011;28584;42.636;23.294;2023-04-25T00:38:34;1999.90;;;999.90;;
42944;SDS011;28584;42.636;23.294;2023-04-25T00:41:00;1999.90;;;999.90;;
42944;SDS011;28584;42.636;23.294;2023-04-25T00:43:28;1999.90;;;999.90;;
42944;SDS011;28584;42.636;23.294;2023-04-25T00:45:55;1999.90;;;999.90;;
42944;SDS011;28584;42.636;23.294;2023-04-25T00:48:22;1999.90;;;999.90;;
42944;SDS011;28584;42.636;23.294;2023-04-25T00:50:51;1999.90;;;999.90;;
42944;SDS011;28584;42.636;23.294;2023-04-25T00:53:18;1999.90;;;999.90;;
42944;SDS011;28584;42.636;23.294;2023-04-25T00:55:45;1999.90;;;999.90;;
42944;SDS011;28584;42.636;23.294;2023-04-25T00:58:10;1999.90;;;999.90;;
42944;SDS011;28584;42.636;23.294;2023-04-25T01:00:36;1999.90;;;999.90;;
42944;SDS011;28584;42.636;23.294;2023-04-25T01:03:01;1999.90;;;999.90;;
42944;SDS011;28584;42.636;23.294;2023-04-25T01:05:28;1532.85;;;755.55;;
42944;SDS011;28584;42.636;23.294;2023-04-25T01:07:54;1565.25;;;760.22;;
42944;SDS011;28584;42.636;23.294;2023-04-25T01:10:20;1609.32;;;765.25;;
42944;SDS011;28584;42.636;23.294;2023-04-25T01:12:45;1636.70;;;771.35;;
42944;SDS011;28584;42.636;23.294;2023-04-25T01:15:11;1999.90;;;999.90;;
42944;SDS011;28584;42.636;23.294;2023-04-25T01:17:37;1608.93;;;769.22;;
42944;SDS011;28584;42.636;23.294;2023-04-25T01:20:03;1999.90;;;999.90;;
42944;SDS011;28584;42.636;23.294;2023-04-25T01:22:30;1999.90;;;999.90;;
42944;SDS011;28584;42.636;23.294;2023-04-25T01:24:56;1999.90;;;999.90;;
42944;SDS011;28584;42.636;23.294;2023-04-25T01:27:22;1999.90;;;999.90;;
42944;SDS011;28584;42.636;23.294;2023-04-25T01:29:47;1999.90;;;999.90;;
42944;SDS011;28584;42.636;23.294;2023-04-25T01:32:14;1999.90;;;999.90;;
42944;SDS011;28584;42.636;23.294;2023-04-25T01:34:40;1999.90;;;999.90;;
42944;SDS011;28584;42.636;23.294;2023-04-25T01:37:05;1999.90;;;999.90;;
42944;SDS011;28584;42.636;23.294;2023-04-25T01:39:31;1999.90;;;999.90;;
42944;SDS011;28584;42.636;23.294;2023-04-25T01:41:56;1631.17;;;727.03;;
42944;SDS011;28584;42.636;23.294;2023-04-25T01:44:22;1558.83;;;708.97;;
42944;SDS011;28584;42.636;23.294;2023-04-25T01:46:48;1547.20;;;709.40;;
42944;SDS011;28584;42.636;23.294;2023-04-25T01:49:13;1579.73;;;720.90;;
42944;SDS011;28584;42.636;23.294;2023-04-25T01:51:39;1543.73;;;708.90;;
42944;SDS011;28584;42.636;23.294;2023-04-25T01:54:05;1593.63;;;763.75;;
42944;SDS011;28584;42.636;23.294;2023-04-25T01:56:31;1707.43;;;793.00;;
42944;SDS011;28584;42.636;23.294;2023-04-25T01:58:58;1626.97;;;728.80;;
42944;SDS011;28584;42.636;23.294;2023-04-25T02:01:24;1651.20;;;740.80;;
42944;SDS011;28584;42.636;23.294;2023-04-25T02:03:50;1605.57;;;730.97;;
42944;SDS011;28584;42.636;23.294;2023-04-25T02:06:15;1638.80;;;744.47;;
42944;SDS011;28584;42.636;23.294;2023-04-25T02:08:40;1696.43;;;760.93;;
42944;SDS011;28584;42.636;23.294;2023-04-25T02:11:06;863.97;;;211.87;;
42944;SDS011;28584;42.636;23.294;2023-04-25T02:13:32;1080.88;;;264.60;;
42944;SDS011;28584;42.636;23.294;2023-04-25T02:15:58;1831.47;;;839.00;;
42944;SDS011;28584;42.636;23.294;2023-04-25T02:18:23;914.78;;;239.75;;
42944;SDS011;28584;42.636;23.294;2023-04-25T02:20:48;656.47;;;128.33;;
42944;SDS011;28584;42.636;23.294;2023-04-25T02:23:14;801.25;;;190.77;;
42944;SDS011;28584;42.636;23.294;2023-04-25T02:25:40;1742.38;;;803.15;;
42944;SDS011;28584;42.636;23.294;2023-04-25T02:28:06;1699.80;;;753.17;;
42944;SDS011;28584;42.636;23.294;2023-04-25T02:30:31;612.10;;;118.87;;
42944;SDS011;28584;42.636;23.294;2023-04-25T02:32:56;1609.10;;;765.85;;
42944;SDS011;28584;42.636;23.294;2023-04-25T02:35:22;1999.90;;;999.90;;
42944;SDS011;28584;42.636;23.294;2023-04-25T02:37:47;1999.90;;;999.90;;
42944;SDS011;28584;42.636;23.294;2023-04-25T02:40:13;1999.90;;;999.90;;
42944;SDS011;28584;42.636;23.294;2023-04-25T02:42:38;1999.90;;;999.90;;
42944;SDS011;28584;42.636;23.294;2023-04-25T02:45:04;1999.90;;;999.90;;
42944;SDS011;28584;42.636;23.294;2023-04-25T02:47:29;1999.90;;;999.90;;
42944;SDS011;28584;42.636;23.294;2023-04-25T02:49:55;1999.90;;;999.90;;
42944;SDS011;28584;42.636;23.294;2023-04-25T02:52:20;1367.07;;;673.27;;
42944;SDS011;28584;42.636;23.294;2023-04-25T02:54:46;1999.90;;;999.90;;
42944;SDS011;28584;42.636;23.294;2023-04-25T02:57:11;1999.90;;;999.90;;
42944;SDS011;28584;42.636;23.294;2023-04-25T02:59:37;1999.90;;;999.90;;
42944;SDS011;28584;42.636;23.294;2023-04-25T03:02:02;1999.90;;;999.90;;
42944;SDS011;28584;42.636;23.294;2023-04-25T03:04:28;1999.90;;;999.90;;
42944;SDS011;28584;42.636;23.294;2023-04-25T03:06:53;1999.90;;;999.90;;
42944;SDS011;28584;42.636;23.294;2023-04-25T03:09:19;1999.90;;;999.90;;
42944;SDS011;28584;42.636;23.294;2023-04-25T03:11:44;1494.60;;;708.40;;
42944;SDS011;28584;42.636;23.294;2023-04-25T03:14:10;1616.77;;;734.13;;
42944;SDS011;28584;42.636;23.294;2023-04-25T03:16:36;1650.27;;;745.97;;
42944;SDS011;28584;42.636;23.294;2023-04-25T03:19:02;811.00;;;179.27;;
42944;SDS011;28584;42.636;23.294;2023-04-25T03:21:27;1665.93;;;748.20;;
42944;SDS011;28584;42.636;23.294;2023-04-25T03:23:53;734.27;;;173.47;;
42944;SDS011;28584;42.636;23.294;2023-04-25T03:26:18;1691.20;;;754.80;;
42944;SDS011;28584;42.636;23.294;2023-04-25T03:28:44;975.30;;;251.07;;
42944;SDS011;28584;42.636;23.294;2023-04-25T03:31:10;1136.13;;;253.23;;
42944;SDS011;28584;42.636;23.294;2023-04-25T03:33:35;1707.73;;;759.87;;
42944;SDS011;28584;42.636;23.294;2023-04-25T03:36:00;875.87;;;214.67;;
42944;SDS011;28584;42.636;23.294;2023-04-25T03:38:26;889.97;;;236.20;;
42944;SDS011;28584;42.636;23.294;2023-04-25T03:40:51;850.40;;;211.07;;
42944;SDS011;28584;42.636;23.294;2023-04-25T03:43:16;1679.83;;;746.83;;
42944;SDS011;28584;42.636;23.294;2023-04-25T03:45:42;894.35;;;225.07;;
42944;SDS011;28584;42.636;23.294;2023-04-25T03:48:07;1828.80;;;832.38;;
42944;SDS011;28584;42.636;23.294;2023-04-25T03:50:33;1289.05;;;340.88;;
42944;SDS011;28584;42.636;23.294;2023-04-25T03:52:58;1421.10;;;348.17;;
42944;SDS011;28584;42.636;23.294;2023-04-25T03:55:23;1652.80;;;398.67;;
42944;SDS011;28584;42.636;23.294;2023-04-25T03:57:49;1629.18;;;484.20;;
42944;SDS011;28584;42.636;23.294;2023-04-25T04:00:14;1632.03;;;448.67;;
42944;SDS011;28584;42.636;23.294;2023-04-25T04:02:40;1826.32;;;499.88;;
42944;SDS011;28584;42.636;23.294;2023-04-25T04:05:05;1918.68;;;512.53;;
42944;SDS011;28584;42.636;23.294;2023-04-25T04:07:31;751.22;;;109.82;;
42944;SDS011;28584;42.636;23.294;2023-04-25T04:09:58;1999.90;;;999.90;;
42944;SDS011;28584;42.636;23.294;2023-04-25T04:12:23;1999.90;;;999.90;;
42944;SDS011;28584;42.636;23.294;2023-04-25T04:14:49;1999.90;;;999.90;;
42944;SDS011;28584;42.636;23.294;2023-04-25T04:17:14;1999.90;;;999.90;;
42944;SDS011;28584;42.636;23.294;2023-04-25T04:19:40;1999.90;;;999.90;;
42944;SDS011;28584;42.636;23.294;2023-04-25T04:22:05;1999.90;;;999.90;;
42944;SDS011;28584;42.636;23.294;2023-04-25T04:24:30;1999.90;;;999.90;;
42944;SDS011;28584;42.636;23.294;2023-04-25T04:26:56;1999.90;;;999.90;;
42944;SDS011;28584;42.636;23.294;2023-04-25T04:29:21;1999.90;;;999.90;;
42944;SDS011;28584;42.636;23.294;2023-04-25T04:31:50;1999.90;;;999.90;;
42944;SDS011;28584;42.636;23.294;2023-04-25T04:34:17;1999.90;;;999.90;;
42944;SDS011;28584;42.636;23.294;2023-04-25T04:36:43;1999.90;;;999.90;;
42944;SDS011;28584;42.636;23.294;2023-04-25T04:39:11;1999.90;;;999.90;;
42944;SDS011;28584;42.636;23.294;2023-04-25T04:41:37;1999.90;;;999.90;;
42944;SDS011;28584;42.636;23.294;2023-04-25T04:44:02;1999.90;;;999.90;;
42944;SDS011;28584;42.636;23.294;2023-04-25T04:46:28;1999.90;;;999.90;;
42944;SDS011;28584;42.636;23.294;2023-04-25T04:48:53;1999.90;;;999.90;;
42944;SDS011;28584;42.636;23.294;2023-04-25T04:51:19;1999.90;;;999.90;;
42944;SDS011;28584;42.636;23.294;2023-04-25T04:53:45;1999.90;;;999.90;;
42944;SDS011;28584;42.636;23.294;2023-04-25T04:56:11;1999.90;;;999.90;;
42944;SDS011;28584;42.636;23.294;2023-04-25T04:58:36;1999.90;;;999.90;;
42944;SDS011;28584;42.636;23.294;2023-04-25T05:01:02;1999.90;;;999.90;;
42944;SDS011;28584;42.636;23.294;2023-04-25T05:03:27;1999.90;;;999.90;;
42944;SDS011;28584;42.636;23.294;2023-04-25T05:05:53;1999.90;;;999.90;;
42944;SDS011;28584;42.636;23.294;2023-04-25T05:08:18;1999.90;;;999.90;;
42944;SDS011;28584;42.636;23.294;2023-04-25T05:10:44;1999.90;;;999.90;;
42944;SDS011;28584;42.636;23.294;2023-04-25T05:13:09;1999.90;;;999.90;;
42944;SDS011;28584;42.636;23.294;2023-04-25T05:15:35;1999.90;;;999.90;;
42944;SDS011;28584;42.636;23.294;2023-04-25T05:21:22;1999.90;;;999.90;;
42944;SDS011;28584;42.636;23.294;2023-04-25T05:23:47;1999.90;;;999.90;;
42944;SDS011;28584;42.636;23.294;2023-04-25T05:26:12;1999.90;;;999.90;;
42944;SDS011;28584;42.636;23.294;2023-04-25T05:28:41;1999.90;;;999.90;;
42944;SDS011;28584;42.636;23.294;2023-04-25T05:31:07;1999.90;;;999.90;;
42944;SDS011;28584;42.636;23.294;2023-04-25T05:33:34;1999.90;;;999.90;;
42944;SDS011;28584;42.636;23.294;2023-04-25T05:36:00;1638.72;;;780.30;;
42944;SDS011;28584;42.636;23.294;2023-04-25T05:38:25;831.33;;;201.77;;
42944;SDS011;28584;42.636;23.294;2023-04-25T05:40:51;1856.88;;;822.67;;
42944;SDS011;28584;42.636;23.294;2023-04-25T05:43:16;1686.40;;;782.85;;
42944;SDS011;28584;42.636;23.294;2023-04-25T05:45:41;1750.70;;;812.92;;
42944;SDS011;28584;42.636;23.294;2023-04-25T05:48:07;1023.60;;;239.13;;
42944;SDS011;28584;42.636;23.294;2023-04-25T05:50:32;1368.40;;;354.60;;
42944;SDS011;28584;42.636;23.294;2023-04-25T05:52:57;1640.75;;;471.75;;
42944;SDS011;28584;42.636;23.294;2023-04-25T05:55:23;1634.18;;;489.65;;
42944;SDS011;28584;42.636;23.294;2023-04-25T05:57:48;1557.32;;;431.05;;
42944;SDS011;28584;42.636;23.294;2023-04-25T06:00:14;1574.28;;;387.52;;
42944;SDS011;28584;42.636;23.294;2023-04-25T06:02:40;1628.90;;;322.40;;
42944;SDS011;28584;42.636;23.294;2023-04-25T06:05:06;1355.10;;;281.52;;
42944;SDS011;28584;42.636;23.294;2023-04-25T06:07:32;1784.40;;;812.50;;
42944;SDS011;28584;42.636;23.294;2023-04-25T06:09:58;1808.57;;;814.88;;
42944;SDS011;28584;42.636;23.294;2023-04-25T06:12:24;1193.80;;;258.33;;
42944;SDS011;28584;42.636;23.294;2023-04-25T06:14:49;936.80;;;220.80;;
42944;SDS011;28584;42.636;23.294;2023-04-25T06:17:15;1814.68;;;816.78;;
42944;SDS011;28584;42.636;23.294;2023-04-25T06:19:40;1718.80;;;795.90;;
42944;SDS011;28584;42.636;23.294;2023-04-25T06:22:06;1647.03;;;771.00;;
42944;SDS011;28584;42.636;23.294;2023-04-25T06:24:32;1999.90;;;999.90;;
42944;SDS011;28584;42.636;23.294;2023-04-25T06:26:58;1999.90;;;999.90;;
42944;SDS011;28584;42.636;23.294;2023-04-25T06:29:24;1999.90;;;999.90;;
42944;SDS011;28584;42.636;23.294;2023-04-25T06:31:50;1999.90;;;999.90;;
42944;SDS011;28584;42.636;23.294;2023-04-25T06:34:15;1576.90;;;761.53;;
42944;SDS011;28584;42.636;23.294;2023-04-25T06:36:41;1621.93;;;771.90;;
42944;SDS011;28584;42.636;23.294;2023-04-25T06:39:06;1678.43;;;786.30;;
42944;SDS011;28584;42.636;23.294;2023-04-25T06:41:32;1999.90;;;999.90;;
42944;SDS011;28584;42.636;23.294;2023-04-25T06:43:57;1999.90;;;999.90;;
42944;SDS011;28584;42.636;23.294;2023-04-25T06:46:22;1999.90;;;999.90;;
42944;SDS011;28584;42.636;23.294;2023-04-25T06:48:48;1999.90;;;999.90;;
42944;SDS011;28584;42.636;23.294;2023-04-25T06:51:13;1999.90;;;999.90;;
42944;SDS011;28584;42.636;23.294;2023-04-25T06:53:39;1999.90;;;999.90;;
42944;SDS011;28584;42.636;23.294;2023-04-25T06:56:05;1999.90;;;999.90;;
42944;SDS011;28584;42.636;23.294;2023-04-25T06:58:30;1999.90;;;999.90;;
42944;SDS011;28584;42.636;23.294;2023-04-25T07:00:56;1999.90;;;999.90;;
42944;SDS011;28584;42.636;23.294;2023-04-25T07:03:22;1999.90;;;999.90;;
42944;SDS011;28584;42.636;23.294;2023-04-25T07:05:47;1999.90;;;999.90;;
42944;SDS011;28584;42.636;23.294;2023-04-25T07:08:12;1999.90;;;999.90;;
42944;SDS011;28584;42.636;23.294;2023-04-25T07:10:38;1999.90;;;999.90;;
42944;SDS011;28584;42.636;23.294;2023-04-25T07:13:03;1999.90;;;999.90;;
42944;SDS011;28584;42.636;23.294;2023-04-25T07:15:29;1999.90;;;999.90;;
42944;SDS011;28584;42.636;23.294;2023-04-25T07:17:54;1999.90;;;999.90;;
42944;SDS011;28584;42.636;23.294;2023-04-25T07:20:20;1999.90;;;999.90;;
42944;SDS011;28584;42.636;23.294;2023-04-25T07:22:45;1999.90;;;999.90;;
42944;SDS011;28584;42.636;23.294;2023-04-25T07:25:11;1999.90;;;999.90;;
42944;SDS011;28584;42.636;23.294;2023-04-25T07:27:36;1999.90;;;999.90;;
42944;SDS011;28584;42.636;23.294;2023-04-25T07:30:02;1999.90;;;999.90;;
42944;SDS011;28584;42.636;23.294;2023-04-25T07:32:28;1999.90;;;999.90;;
42944;SDS011;28584;42.636;23.294;2023-04-25T07:34:54;1999.90;;;999.90;;
42944;SDS011;28584;42.636;23.294;2023-04-25T07:37:20;1999.90;;;999.90;;
42944;SDS011;28584;42.636;23.294;2023-04-25T07:39:45;1999.90;;;999.90;;
42944;SDS011;28584;42.636;23.294;2023-04-25T07:42:11;1999.90;;;999.90;;
42944;SDS011;28584;42.636;23.294;2023-04-25T07:44:37;1999.90;;;999.90;;
42944;SDS011;28584;42.636;23.294;2023-04-25T07:47:06;1999.90;;;999.90;;
42944;SDS011;28584;42.636;23.294;2023-04-25T07:49:33;1999.90;;;999.90;;
42944;SDS011;28584;42.636;23.294;2023-04-25T07:52:02;1999.90;;;999.90;;
42944;SDS011;28584;42.636;23.294;2023-04-25T07:54:29;1999.90;;;999.90;;
42944;SDS011;28584;42.636;23.294;2023-04-25T07:56:55;1999.90;;;999.90;;
42944;SDS011;28584;42.636;23.294;2023-04-25T07:59:20;1999.90;;;999.90;;
42944;SDS011;28584;42.636;23.294;2023-04-25T08:01:46;1999.90;;;999.90;;
42944;SDS011;28584;42.636;23.294;2023-04-25T08:04:12;1999.90;;;999.90;;
42944;SDS011;28584;42.636;23.294;2023-04-25T08:06:37;1999.90;;;999.90;;
42944;SDS011;28584;42.636;23.294;2023-04-25T08:09:03;1999.90;;;999.90;;
42944;SDS011;28584;42.636;23.294;2023-04-25T08:11:29;1999.90;;;999.90;;
42944;SDS011;28584;42.636;23.294;2023-04-25T08:13:54;1999.90;;;999.90;;
42944;SDS011;28584;42.636;23.294;2023-04-25T08:16:20;1999.90;;;999.90;;
42944;SDS011;28584;42.636;23.294;2023-04-25T08:18:45;1999.90;;;999.90;;
42944;SDS011;28584;42.636;23.294;2023-04-25T08:21:11;1999.90;;;999.90;;
42944;SDS011;28584;42.636;23.294;2023-04-25T08:23:37;1999.90;;;999.90;;
42944;SDS011;28584;42.636;23.294;2023-04-25T08:26:03;1999.90;;;999.90;;
42944;SDS011;28584;42.636;23.294;2023-04-25T08:28:29;1999.90;;;999.90;;
42944;SDS011;28584;42.636;23.294;2023-04-25T08:30:55;1999.90;;;999.90;;
42944;SDS011;28584;42.636;23.294;2023-04-25T08:33:20;1999.90;;;999.90;;
42944;SDS011;28584;42.636;23.294;2023-04-25T08:35:45;1999.90;;;999.90;;
42944;SDS011;28584;42.636;23.294;2023-04-25T08:38:11;1999.90;;;999.90;;
42944;SDS011;28584;42.636;23.294;2023-04-25T08:40:37;1999.90;;;999.90;;
42944;SDS011;28584;42.636;23.294;2023-04-25T08:43:03;1999.90;;;999.90;;
42944;SDS011;28584;42.636;23.294;2023-04-25T08:45:38;1999.90;;;999.90;;
42944;SDS011;28584;42.636;23.294;2023-04-25T08:48:15;1999.90;;;999.90;;
42944;SDS011;28584;42.636;23.294;2023-04-25T08:53:17;1999.90;;;999.90;;
42944;SDS011;28584;42.636;23.294;2023-04-25T08:55:47;1999.90;;;999.90;;
42944;SDS011;28584;42.636;23.294;2023-04-25T08:58:13;1999.90;;;999.90;;
42944;SDS011;28584;42.636;23.294;2023-04-25T09:00:40;1999.90;;;999.90;;
42944;SDS011;28584;42.636;23.294;2023-04-25T09:03:05;1999.90;;;999.90;;
42944;SDS011;28584;42.636;23.294;2023-04-25T09:05:32;1999.90;;;999.90;;
42944;SDS011;28584;42.636;23.294;2023-04-25T09:07:57;1999.90;;;999.90;;
42944;SDS011;28584;42.636;23.294;2023-04-25T09:10:23;1999.90;;;999.90;;
42944;SDS011;28584;42.636;23.294;2023-04-25T09:15:53;1999.90;;;999.90;;
42944;SDS011;28584;42.636;23.294;2023-04-25T09:20:50;1999.90;;;999.90;;
42944;SDS011;28584;42.636;23.294;2023-04-25T09:23:17;1999.90;;;999.90;;
42944;SDS011;28584;42.636;23.294;2023-04-25T09:25:45;1999.90;;;999.90;;
42944;SDS011;28584;42.636;23.294;2023-04-25T09:28:13;1999.90;;;999.90;;
42944;SDS011;28584;42.636;23.294;2023-04-25T09:30:38;1999.90;;;999.90;;
42944;SDS011;28584;42.636;23.294;2023-04-25T09:33:04;1999.90;;;999.90;;
42944;SDS011;28584;42.636;23.294;2023-04-25T09:35:38;1999.90;;;999.90;;
42944;SDS011;28584;42.636;23.294;2023-04-25T09:38:17;1999.90;;;999.90;;
42944;SDS011;28584;42.636;23.294;2023-04-25T09:40:44;1999.90;;;999.90;;
42944;SDS011;28584;42.636;23.294;2023-04-25T09:43:20;1999.90;;;999.90;;
42944;SDS011;28584;42.636;23.294;2023-04-25T09:45:47;1999.90;;;999.90;;
42944;SDS011;28584;42.636;23.294;2023-04-25T09:48:18;1999.90;;;999.90;;
42944;SDS011;28584;42.636;23.294;2023-04-25T09:53:36;1999.90;;;999.90;;
42944;SDS011;28584;42.636;23.294;2023-04-25T09:56:04;1999.90;;;999.90;;
42944;SDS011;28584;42.636;23.294;2023-04-25T09:58:31;1999.90;;;999.90;;
42944;SDS011;28584;42.636;23.294;2023-04-25T10:00:59;1999.90;;;999.90;;
42944;SDS011;28584;42.636;23.294;2023-04-25T10:03:27;1999.90;;;999.90;;
42944;SDS011;28584;42.636;23.294;2023-04-25T10:05:55;1999.90;;;999.90;;
42944;SDS011;28584;42.636;23.294;2023-04-25T10:08:24;1999.90;;;999.90;;
42944;SDS011;28584;42.636;23.294;2023-04-25T10:10:51;1999.90;;;999.90;;
42944;SDS011;28584;42.636;23.294;2023-04-25T10:13:17;1999.90;;;999.90;;
42944;SDS011;28584;42.636;23.294;2023-04-25T10:15:43;1999.90;;;999.90;;
42944;SDS011;28584;42.636;23.294;2023-04-25T10:18:09;1999.90;;;999.90;;
42944;SDS011;28584;42.636;23.294;2023-04-25T10:20:35;1999.90;;;999.90;;
42944;SDS011;28584;42.636;23.294;2023-04-25T10:23:11;1999.90;;;999.90;;
42944;SDS011;28584;42.636;23.294;2023-04-25T10:25:38;1999.90;;;999.90;;
42944;SDS011;28584;42.636;23.294;2023-04-25T10:28:05;1999.90;;;999.90;;
42944;SDS011;28584;42.636;23.294;2023-04-25T10:30:31;1999.90;;;999.90;;
42944;SDS011;28584;42.636;23.294;2023-04-25T10:32:56;1999.90;;;999.90;;
42944;SDS011;28584;42.636;23.294;2023-04-25T10:35:27;1999.90;;;999.90;;
42944;SDS011;28584;42.636;23.294;2023-04-25T10:37:57;1999.90;;;999.90;;
42944;SDS011;28584;42.636;23.294;2023-04-25T10:40:24;1999.90;;;999.90;;
42944;SDS011;28584;42.636;23.294;2023-04-25T10:42:51;1999.90;;;999.90;;
42944;SDS011;28584;42.636;23.294;2023-04-25T10:45:17;1999.90;;;999.90;;
42944;SDS011;28584;42.636;23.294;2023-04-25T10:47:43;1999.90;;;999.90;;
42944;SDS011;28584;42.636;23.294;2023-04-25T10:50:14;1999.90;;;999.90;;
42944;SDS011;28584;42.636;23.294;2023-04-25T10:52:43;1999.90;;;999.90;;
42944;SDS011;28584;42.636;23.294;2023-04-25T10:55:09;1999.90;;;999.90;;
42944;SDS011;28584;42.636;23.294;2023-04-25T10:57:42;1999.90;;;999.90;;
42944;SDS011;28584;42.636;23.294;2023-04-25T11:00:17;1999.90;;;999.90;;
42944;SDS011;28584;42.636;23.294;2023-04-25T11:02:45;1999.90;;;999.90;;
42944;SDS011;28584;42.636;23.294;2023-04-25T11:05:32;1999.90;;;999.90;;
42944;SDS011;28584;42.636;23.294;2023-04-25T11:07:59;1999.90;;;999.90;;
42944;SDS011;28584;42.636;23.294;2023-04-25T11:10:31;1999.90;;;999.90;;
42944;SDS011;28584;42.636;23.294;2023-04-25T11:12:58;1999.90;;;999.90;;
42944;SDS011;28584;42.636;23.294;2023-04-25T11:15:24;1999.90;;;999.90;;
42944;SDS011;28584;42.636;23.294;2023-04-25T11:17:52;1999.90;;;999.90;;
42944;SDS011;28584;42.636;23.294;2023-04-25T11:20:18;1999.90;;;999.90;;
42944;SDS011;28584;42.636;23.294;2023-04-25T11:22:44;1999.90;;;999.90;;
42944;SDS011;28584;42.636;23.294;2023-04-25T11:25:11;1999.90;;;999.90;;
42944;SDS011;28584;42.636;23.294;2023-04-25T11:27:49;1999.90;;;999.90;;
42944;SDS011;28584;42.636;23.294;2023-04-25T11:30:19;1999.90;;;999.90;;
42944;SDS011;28584;42.636;23.294;2023-04-25T11:32:45;1999.90;;;999.90;;
42944;SDS011;28584;42.636;23.294;2023-04-25T11:35:11;1999.90;;;999.90;;
42944;SDS011;28584;42.636;23.294;2023-04-25T11:37:40;1999.90;;;999.90;;
42944;SDS011;28584;42.636;23.294;2023-04-25T11:40:07;1999.90;;;999.90;;
42944;SDS011;28584;42.636;23.294;2023-04-25T11:42:35;1999.90;;;999.90;;
42944;SDS011;28584;42.636;23.294;2023-04-25T11:45:02;1999.90;;;999.90;;
42944;SDS011;28584;42.636;23.294;2023-04-25T11:47:32;1999.90;;;999.90;;
42944;SDS011;28584;42.636;23.294;2023-04-25T11:49:59;1999.90;;;999.90;;
42944;SDS011;28584;42.636;23.294;2023-04-25T11:52:34;1999.90;;;999.90;;
42944;SDS011;28584;42.636;23.294;2023-04-25T11:55:01;1999.90;;;999.90;;
42944;SDS011;28584;42.636;23.294;2023-04-25T11:57:30;1999.90;;;999.90;;
42944;SDS011;28584;42.636;23.294;2023-04-25T12:00:04;1999.90;;;999.90;;
42944;SDS011;28584;42.636;23.294;2023-04-25T12:02:31;1999.90;;;999.90;;
42944;SDS011;28584;42.636;23.294;2023-04-25T12:04:59;1999.90;;;999.90;;
42944;SDS011;28584;42.636;23.294;2023-04-25T12:07:28;1999.90;;;999.90;;
42944;SDS011;28584;42.636;23.294;2023-04-25T12:09:55;1334.50;;;323.92;;
42944;SDS011;28584;42.636;23.294;2023-04-25T12:12:20;1753.32;;;548.35;;
42944;SDS011;28584;42.636;23.294;2023-04-25T12:14:46;1999.90;;;999.90;;
42944;SDS011;28584;42.636;23.294;2023-04-25T12:17:13;1999.90;;;999.90;;
42944;SDS011;28584;42.636;23.294;2023-04-25T12:19:39;1999.90;;;999.90;;
42944;SDS011;28584;42.636;23.294;2023-04-25T12:22:22;1999.90;;;999.90;;
42944;SDS011;28584;42.636;23.294;2023-04-25T12:24:48;1999.90;;;999.90;;
42944;SDS011;28584;42.636;23.294;2023-04-25T12:27:15;1999.90;;;999.90;;
42944;SDS011;28584;42.636;23.294;2023-04-25T12:29:50;1999.90;;;999.90;;
42944;SDS011;28584;42.636;23.294;2023-04-25T12:32:16;1999.90;;;999.90;;
42944;SDS011;28584;42.636;23.294;2023-04-25T12:34:42;1999.90;;;999.90;;
42944;SDS011;28584;42.636;23.294;2023-04-25T12:37:08;1999.90;;;999.90;;
42944;SDS011;28584;42.636;23.294;2023-04-25T12:39:34;1999.90;;;999.90;;
42944;SDS011;28584;42.636;23.294;2023-04-25T12:41:59;1999.90;;;999.90;;
42944;SDS011;28584;42.636;23.294;2023-04-25T12:44:25;1999.90;;;999.90;;
42944;SDS011;28584;42.636;23.294;2023-04-25T12:46:51;1999.90;;;999.90;;
42944;SDS011;28584;42.636;23.294;2023-04-25T12:49:17;1999.90;;;999.90;;
42944;SDS011;28584;42.636;23.294;2023-04-25T12:51:42;1999.90;;;999.90;;
42944;SDS011;28584;42.636;23.294;2023-04-25T12:54:08;1999.90;;;999.90;;
42944;SDS011;28584;42.636;23.294;2023-04-25T12:56:33;1999.90;;;999.90;;
42944;SDS011;28584;42.636;23.294;2023-04-25T12:58:59;1999.90;;;999.90;;
42944;SDS011;28584;42.636;23.294;2023-04-25T13:01:25;1999.90;;;999.90;;
42944;SDS011;28584;42.636;23.294;2023-04-25T13:03:51;1999.90;;;999.90;;
42944;SDS011;28584;42.636;23.294;2023-04-25T13:06:17;1999.90;;;999.90;;
42944;SDS011;28584;42.636;23.294;2023-04-25T13:08:45;1999.90;;;999.90;;
42944;SDS011;28584;42.636;23.294;2023-04-25T13:11:11;1999.90;;;999.90;;
42944;SDS011;28584;42.636;23.294;2023-04-25T13:13:37;1999.90;;;999.90;;
42944;SDS011;28584;42.636;23.294;2023-04-25T13:16:05;1999.90;;;999.90;;
42944;SDS011;28584;42.636;23.294;2023-04-25T13:18:32;1999.90;;;999.90;;
42944;SDS011;28584;42.636;23.294;2023-04-25T13:20:57;1999.90;;;999.90;;
42944;SDS011;28584;42.636;23.294;2023-04-25T13:23:24;1999.90;;;999.90;;
42944;SDS011;28584;42.636;23.294;2023-04-25T13:25:51;1999.90;;;999.90;;
42944;SDS011;28584;42.636;23.294;2023-04-25T13:28:17;1999.90;;;999.90;;
42944;SDS011;28584;42.636;23.294;2023-04-25T13:30:42;1999.90;;;999.90;;
42944;SDS011;28584;42.636;23.294;2023-04-25T13:33:08;1999.90;;;999.90;;
42944;SDS011;28584;42.636;23.294;2023-04-25T13:35:34;1999.90;;;999.90;;
42944;SDS011;28584;42.636;23.294;2023-04-25T13:38:01;1999.90;;;999.90;;
42944;SDS011;28584;42.636;23.294;2023-04-25T13:40:28;1999.90;;;999.90;;
42944;SDS011;28584;42.636;23.294;2023-04-25T13:42:54;1999.90;;;999.90;;
42944;SDS011;28584;42.636;23.294;2023-04-25T13:45:20;1999.90;;;999.90;;